Estación de La capilla
Ultimos registro cada 15 minutos 74
| N° | Estación | Fecha / Hora | Temperatura | Humedad | Lluvia | Velocidad | Dirección | Radiación | Presion |
| 74 | La capilla | 04-09-2026 18:30 | 9,8 | 68 | 0 | 2,7 | 360 | 0 | 1100,6 |
| 73 | La capilla | 04-09-2026 18:15 | 10,2 | 67 | 0 | 2,2 | 345 | 7 | 1100,6 |
| 72 | La capilla | 04-09-2026 18:00 | 10,6 | 67 | 0 | 0,4 | 360 | 12 | 1100,6 |
| 71 | La capilla | 04-09-2026 17:45 | 11,1 | 65 | 0 | 4 | 360 | 16 | 1100,6 |
| 70 | La capilla | 04-09-2026 17:15 | 11,6 | 64 | 0 | 2,2 | 11 | 18 | 1100,6 |
| 69 | La capilla | 04-09-2026 17:00 | 11,8 | 64 | 0 | 1,3 | 351 | 19 | 1100,6 |
| 68 | La capilla | 04-09-2026 16:45 | 12,1 | 62 | 0 | 4,9 | 348 | 127 | 1100,6 |
| 67 | La capilla | 04-09-2026 16:30 | 12,5 | 61 | 0 | 2,7 | 322 | 30 | 1100,6 |
| 66 | La capilla | 04-09-2026 16:15 | 12,4 | 60 | 0 | 4 | 355 | 47 | 1100,5 |
| 65 | La capilla | 04-09-2026 16:00 | 12,6 | 60 | 0 | 4 | 345 | 390 | 1100,6 |
| 64 | La capilla | 04-09-2026 15:45 | 12,6 | 59 | 0 | 6,3 | 351 | 434 | 1100,3 |
| 63 | La capilla | 04-09-2026 15:30 | 12,8 | 60 | 0 | 2,7 | 43 | 339 | 1100,4 |
| 62 | La capilla | 04-09-2026 15:15 | 12,8 | 60 | 0 | 6,3 | 360 | 513 | 1100,2 |
| 61 | La capilla | 04-09-2026 15:00 | 12,9 | 62 | 0 | 3,6 | 360 | 236 | 1100,4 |
| 60 | La capilla | 04-09-2026 14:45 | 12,8 | 60 | 0 | 2,2 | 344 | 497 | 1100,6 |
| 59 | La capilla | 04-09-2026 14:30 | 12,7 | 60 | 0 | 2,7 | 340 | 612 | 1100,6 |
| 58 | La capilla | 04-09-2026 14:15 | 12,5 | 60 | 0 | 3,6 | 331 | 642 | 1100,6 |
| 57 | La capilla | 04-09-2026 14:00 | 12,4 | 62 | 0 | 2,2 | 350 | 649 | 1100,6 |
| 56 | La capilla | 04-09-2026 13:45 | 12,4 | 62 | 0 | 2,7 | 355 | 680 | 1100,6 |
| 55 | La capilla | 04-09-2026 13:30 | 12,3 | 61 | 0 | 5,8 | 292 | 696 | 1100,6 |
| 54 | La capilla | 04-09-2026 13:15 | 12,2 | 63 | 0 | 5,4 | 43 | 707 | 1100,6 |
| 53 | La capilla | 04-09-2026 13:00 | 11,8 | 63 | 0 | 4,5 | 321 | 712 | 1100,6 |
| 52 | La capilla | 04-09-2026 12:45 | 11,9 | 62 | 0 | 7,6 | 355 | 719 | 1100,6 |
| 51 | La capilla | 04-09-2026 12:30 | 11,5 | 65 | 0 | 3,6 | 344 | 719 | 1100,6 |
| 50 | La capilla | 04-09-2026 12:15 | 11,2 | 66 | 0 | 4,5 | 326 | 717 | 1100,6 |
| 49 | La capilla | 04-09-2026 12:00 | 10,8 | 65 | 0 | 5,8 | 355 | 712 | 1100,6 |
| 48 | La capilla | 04-09-2026 11:45 | 10,6 | 64 | 0 | 4,9 | 360 | 698 | 1100,6 |
| 47 | La capilla | 04-09-2026 11:30 | 10,3 | 68 | 0 | 2,2 | 349 | 680 | 1100,6 |
| 46 | La capilla | 04-09-2026 11:15 | 10,2 | 68 | 0 | 4 | 346 | 664 | 1100,6 |
| 45 | La capilla | 04-09-2026 11:00 | 9,7 | 72 | 0 | 4,9 | 360 | 664 | 1100,6 |
| 44 | La capilla | 04-09-2026 10:45 | 9,3 | 71 | 0 | 3,6 | 340 | 592 | 1100,6 |
| 43 | La capilla | 04-09-2026 10:30 | 9 | 74 | 0 | 4 | 350 | 561 | 1100,6 |
| 42 | La capilla | 04-09-2026 10:15 | 8,9 | 74 | 0 | 2,2 | 360 | 526 | 1100,6 |
| 41 | La capilla | 04-09-2026 10:00 | 8,6 | 77 | 0 | 1,8 | 360 | 494 | 1100,6 |
| 40 | La capilla | 04-09-2026 09:45 | 8,2 | 78 | 0 | 5,4 | 9 | 462 | 1100,6 |
| 39 | La capilla | 04-09-2026 09:30 | 7,8 | 80 | 0 | 2,7 | 331 | 35 | 1100,6 |
| 38 | La capilla | 04-09-2026 09:15 | 7,6 | 80 | 0 | 7,6 | 355 | 381 | 1100,6 |
| 37 | La capilla | 04-09-2026 09:00 | 7,3 | 80 | 0 | 3,6 | 334 | 332 | 1100,6 |
| 36 | La capilla | 04-09-2026 08:45 | 7 | 81 | 0 | 3,6 | 350 | 283 | 1100,6 |
| 35 | La capilla | 04-09-2026 08:30 | 6,4 | 82 | 0 | 1,3 | 338 | 236 | 1100,6 |
| 34 | La capilla | 04-09-2026 08:15 | 5,9 | 84 | 0 | 2,2 | 343 | 120 | 1100,6 |
| 33 | La capilla | 04-09-2026 08:00 | 5,2 | 85 | 0 | 2,2 | 355 | 120 | 1100,6 |
| 32 | La capilla | 04-09-2026 07:45 | 4,8 | 86 | 0 | 2,7 | 360 | 16 | 1100,6 |
| 31 | La capilla | 04-09-2026 07:30 | 4,5 | 86 | 0 | 1,8 | 360 | 14 | 1100,6 |
| 30 | La capilla | 04-09-2026 07:15 | 4,6 | 86 | 0 | 1,8 | 360 | 9 | 1100,6 |
| 29 | La capilla | 04-09-2026 07:00 | 4,7 | 85 | 0 | 2,2 | 360 | 0 | 1100,6 |
| 28 | La capilla | 04-09-2026 06:45 | 4,7 | 85 | 0 | 1,3 | 360 | 0 | 1100,6 |
| 27 | La capilla | 04-09-2026 06:30 | 4,7 | 85 | 0 | 1,3 | 360 | 0 | 1100,6 |
| 26 | La capilla | 04-09-2026 06:15 | 4,8 | 84 | 0 | 2,7 | 360 | 0 | 1100,6 |
| 25 | La capilla | 04-09-2026 06:00 | 4,8 | 84 | 0 | 0,9 | 360 | 0 | 1100,6 |
| 24 | La capilla | 04-09-2026 05:45 | 4,8 | 84 | 0 | 1,3 | 360 | 0 | 1100,6 |
| 23 | La capilla | 04-09-2026 05:30 | 4,7 | 85 | 0 | 1,3 | 360 | 0 | 1100,6 |
| 22 | La capilla | 04-09-2026 05:15 | 4,7 | 85 | 0 | 1,8 | 360 | 0 | 1100,6 |
| 21 | La capilla | 04-09-2026 05:00 | 4,7 | 85 | 0 | 1,8 | 360 | 0 | 1100,6 |
| 20 | La capilla | 04-09-2026 04:45 | 4,6 | 85 | 0 | 1,8 | 360 | 0 | 1100,6 |
| 19 | La capilla | 04-09-2026 04:30 | 4,7 | 85 | 0 | 0,9 | 360 | 0 | 1100,6 |
| 18 | La capilla | 04-09-2026 04:15 | 4,9 | 84 | 0 | 1,8 | 360 | 0 | 1100,6 |
| 17 | La capilla | 04-09-2026 04:00 | 4,7 | 85 | 0 | 2,2 | 360 | 0 | 1100,6 |
| 16 | La capilla | 04-09-2026 03:45 | 4,8 | 84 | 0 | 1,3 | 360 | 0 | 1100,6 |
| 15 | La capilla | 04-09-2026 03:30 | 4,8 | 84 | 0 | 1,3 | 360 | 0 | 1100,6 |
| 14 | La capilla | 04-09-2026 03:15 | 4,9 | 84 | 0 | 2,2 | 360 | 0 | 1100,6 |
| 13 | La capilla | 04-09-2026 03:00 | 5 | 83 | 0 | 1,8 | 360 | 0 | 1100,6 |
| 12 | La capilla | 04-09-2026 02:45 | 5,1 | 83 | 0 | 0,9 | 360 | 0 | 1100,6 |
| 11 | La capilla | 04-09-2026 02:30 | 5,1 | 83 | 0 | 1,3 | 360 | 0 | 1100,6 |
| 10 | La capilla | 04-09-2026 02:15 | 5,2 | 83 | 0 | 0,9 | 360 | 0 | 1100,6 |
| 9 | La capilla | 04-09-2026 02:00 | 5,1 | 83 | 0 | 1,3 | 360 | 0 | 1100,6 |
| 8 | La capilla | 04-09-2026 01:45 | 5,2 | 83 | 0 | 0,9 | 360 | 0 | 1100,6 |
| 7 | La capilla | 04-09-2026 01:30 | 5,3 | 82 | 0 | 0,9 | 360 | 0 | 1100,6 |
| 6 | La capilla | 04-09-2026 01:15 | 5,4 | 82 | 0 | 0,9 | 360 | 0 | 1100,6 |
| 5 | La capilla | 04-09-2026 01:00 | 5,4 | 82 | 0 | 1,3 | 360 | 0 | 1100,6 |
| 4 | La capilla | 04-09-2026 00:45 | 5,5 | 81 | 0 | 2,2 | 360 | 0 | 1100,6 |
| 3 | La capilla | 04-09-2026 00:30 | 5,7 | 80 | 0 | 1,3 | 360 | 0 | 1100,6 |
| 2 | La capilla | 04-09-2026 00:15 | 5,8 | 80 | 0 | 1,8 | 360 | 0 | 1100,6 |
| 1 | La capilla | 04-09-2026 00:00 | 5,8 | 80 | 0 | 1,3 | 360 | 0 | 1100,6 |